Oria, Spain
Current Conditions -  °F | °C
As of 12:30 PM on Saturday 25 Oct 2014 (Local Time) from LESO Reporting Station
Clear Clear  
Wind Chill: 72°   Ceiling: Unl
Heat Index: 72°   Visibility: 6mi
Dew Point: 55°   Wind: 0mph
Humidity: 57%   Direction: NA
Pressure: 30.15"   Gusts: NA
Location:  43.26°N, 2.02°W
Report Text: LESO 251030Z 00000KT CAVOK 22/13 Q1021
Loading
Personal Weather Stations






























Interactive Weather Map
Tropical Storm Tracking
New forecast layout! Learn more

10-Day Weather Forecast

Advertisements
Track Severe Weather on mobile